Time;durP1;ratioP1;P1;durP2;ratioP2;P2;SDS_P1;SDS_P2;PMS_P1;PMS_P2;Temp;Humidity;BMP_temperature;BMP_pressure;BME280_temperature;BME280_humidity;BME280_pressure;Samples;Min_cycle;Max_cycle;Signal;HPM_P1;HPM_P2
2022/07/26 00:01:44;;;;;;;7.23;5.30;;;22.30;99.90;;;;;;5072983;28;20952;-50
2022/07/26 00:04:12;;;;;;;8.40;5.70;;;22.20;99.90;;;;;;5073084;28;20473;-50
2022/07/26 00:06:38;;;;;;;8.63;5.73;;;22.20;99.90;;;;;;5073184;28;20971;-50
2022/07/26 00:09:05;;;;;;;8.57;5.63;;;22.60;99.90;;;;;;5072802;28;20434;-49
2022/07/26 00:11:32;;;;;;;6.67;6.00;;;22.30;99.90;;;;;;5073325;28;20438;-50
2022/07/26 00:13:59;;;;;;;7.97;5.73;;;22.30;99.90;;;;;;5072980;28;20977;-49
2022/07/26 00:16:26;;;;;;;5.77;5.20;;;22.30;99.90;;;;;;5072987;28;20544;-50
2022/07/26 00:18:52;;;;;;;8.30;5.40;;;21.90;99.90;;;;;;5072657;28;20437;-50
2022/07/26 00:21:20;;;;;;;5.53;4.70;;;22.20;99.90;;;;;;5072914;28;20437;-49
2022/07/26 00:23:47;;;;;;;7.80;5.37;;;21.80;99.90;;;;;;5072851;28;20482;-50
2022/07/26 00:26:14;;;;;;;8.30;6.23;;;22.20;99.90;;;;;;5072634;28;20838;-50
2022/07/26 00:28:41;;;;;;;9.50;6.80;;;22.20;99.90;;;;;;5071105;28;20958;-49
2022/07/26 00:31:07;;;;;;;8.80;7.13;;;22.20;99.90;;;;;;5072797;28;20470;-49
2022/07/26 00:33:34;;;;;;;6.70;6.07;;;22.20;99.90;;;;;;5072927;28;20779;-48
2022/07/26 00:36:01;;;;;;;8.23;6.30;;;22.20;99.90;;;;;;5072745;28;20459;-49
2022/07/26 00:38:29;;;;;;;7.50;6.57;;;21.80;99.90;;;;;;5072491;28;20455;-49
2022/07/26 00:40:55;;;;;;;5.50;4.50;;;22.10;99.90;;;;;;5072788;28;20810;-49
2022/07/26 00:43:22;;;;;;;6.17;5.40;;;22.00;99.90;;;;;;5072482;28;20469;-49
2022/07/26 00:45:49;;;;;;;7.50;5.70;;;21.80;99.90;;;;;;5072287;28;20478;-50
2022/07/26 00:48:16;;;;;;;6.97;5.73;;;22.00;99.90;;;;;;5072253;28;20543;-50
2022/07/26 00:50:42;;;;;;;9.13;5.67;;;22.10;99.90;;;;;;5071719;28;20901;-49
2022/07/26 00:53:09;;;;;;;7.80;5.87;;;22.00;99.90;;;;;;5072513;28;20448;-49
2022/07/26 00:55:37;;;;;;;7.60;6.30;;;22.10;99.90;;;;;;5072139;28;20922;-49
2022/07/26 00:58:05;;;;;;;6.43;5.83;;;22.00;99.90;;;;;;5072263;28;20804;-50
2022/07/26 01:00:32;;;;;;;6.57;5.87;;;22.10;99.90;;;;;;5072009;28;20487;-49
2022/07/26 01:02:59;;;;;;;7.27;6.60;;;21.90;99.90;;;;;;5071932;28;20441;-50
2022/07/26 01:05:27;;;;;;;6.87;6.17;;;22.00;99.90;;;;;;5071864;28;20433;-50
2022/07/26 01:07:53;;;;;;;7.73;6.47;;;22.00;99.90;;;;;;5072116;28;20991;-50
2022/07/26 01:10:20;;;;;;;7.07;5.50;;;21.90;99.90;;;;;;5070670;28;20968;-50
2022/07/26 01:12:48;;;;;;;7.37;6.67;;;21.90;99.90;;;;;;5072016;28;20425;-50
2022/07/26 01:15:15;;;;;;;7.83;6.30;;;21.90;99.90;;;;;;5071885;28;20433;-50
2022/07/26 01:17:43;;;;;;;7.50;6.80;;;21.90;99.90;;;;;;5071882;28;20438;-50
2022/07/26 01:20:11;;;;;;;8.07;7.27;;;21.90;99.90;;;;;;5071568;28;20508;-49
2022/07/26 01:22:40;;;;;;;6.70;6.10;;;21.80;99.90;;;;;;5071888;28;20437;-49
2022/07/26 01:25:08;;;;;;;8.77;7.73;;;21.70;99.90;;;;;;5071700;28;20891;-49
2022/07/26 01:27:38;;;;;;;9.40;8.43;;;21.50;99.90;;;;;;5071496;28;20469;-49
2022/07/26 01:30:07;;;;;;;9.27;8.20;;;21.90;99.90;;;;;;5071522;28;20530;-49
2022/07/26 01:32:34;;;;;;;8.53;7.73;;;21.90;99.90;;;;;;5071743;28;20494;-49
2022/07/26 01:35:01;;;;;;;12.07;8.50;;;21.90;99.90;;;;;;5071714;28;20463;-49
2022/07/26 01:37:27;;;;;;;11.00;7.83;;;21.90;99.90;;;;;;5071462;28;20456;-49
2022/07/26 01:39:55;;;;;;;11.00;8.70;;;21.90;99.90;;;;;;5070989;28;20949;-49
2022/07/26 01:42:22;;;;;;;8.43;7.53;;;22.10;99.90;;;;;;5071503;28;20478;-49
2022/07/26 01:44:48;;;;;;;13.10;8.17;;;21.90;99.90;;;;;;5071315;28;21020;-50
2022/07/26 01:47:15;;;;;;;8.93;8.03;;;21.90;99.90;;;;;;5071473;28;20465;-49
2022/07/26 01:49:42;;;;;;;8.53;7.73;;;21.90;99.90;;;;;;5070946;28;20445;-49
2022/07/26 01:52:08;;;;;;;9.80;8.87;;;21.90;99.90;;;;;;5071306;28;20444;-50
2022/07/26 01:54:35;;;;;;;9.40;8.50;;;21.90;99.90;;;;;;5071208;28;20431;-49
2022/07/26 01:57:03;;;;;;;9.00;7.80;;;21.70;99.90;;;;;;5071392;28;20457;-49
2022/07/26 01:59:30;;;;;;;9.37;8.47;;;21.90;99.90;;;;;;5070820;28;20444;-49
2022/07/26 02:01:59;;;;;;;9.33;8.43;;;21.90;99.90;;;;;;5070591;28;20482;-49
2022/07/26 02:07:10;;;;;;;9.17;8.30;;;21.90;99.90;;;;;;5071053;28;20598;-50
2022/07/26 02:09:37;;;;;;;12.70;9.83;;;21.90;99.90;;;;;;5070669;28;20445;-49
2022/07/26 02:12:05;;;;;;;9.23;8.43;;;21.80;99.90;;;;;;5070966;28;20433;-48
2022/07/26 02:14:32;;;;;;;10.03;9.00;;;21.80;99.90;;;;;;5071016;28;20974;-49
2022/07/26 02:16:59;;;;;;;10.23;9.23;;;21.80;99.90;;;;;;5071151;28;20863;-49
2022/07/26 02:19:26;;;;;;;10.27;8.87;;;21.80;99.90;;;;;;5070861;28;20430;-49
2022/07/26 02:21:52;;;;;;;11.50;9.60;;;21.50;99.90;;;;;;5071115;28;20425;-49
2022/07/26 02:24:19;;;;;;;10.60;9.70;;;21.80;99.90;;;;;;5070734;28;20479;-49
2022/07/26 02:26:46;;;;;;;12.43;11.07;;;21.80;99.90;;;;;;5070681;28;20476;-50
2022/07/26 02:29:13;;;;;;;13.10;11.13;;;22.10;99.90;;;;;;5070654;28;20431;-49
2022/07/26 02:31:40;;;;;;;11.43;10.40;;;21.40;99.90;;;;;;5070985;28;20491;-50
2022/07/26 02:34:07;;;;;;;11.57;10.50;;;21.70;99.90;;;;;;5070837;28;20447;-49
2022/07/26 02:36:34;;;;;;;11.60;10.47;;;21.90;99.90;;;;;;5070835;28;20471;-50
2022/07/26 02:39:00;;;;;;;11.80;10.70;;;21.60;99.90;;;;;;5070410;28;20444;-50
2022/07/26 02:41:27;;;;;;;10.63;9.73;;;21.60;99.90;;;;;;5070750;28;20466;-50
2022/07/26 02:43:53;;;;;;;11.37;10.20;;;21.50;99.90;;;;;;5070570;28;20478;-50
2022/07/26 02:46:21;;;;;;;10.23;9.27;;;21.50;99.90;;;;;;5071023;28;20498;-51
2022/07/26 02:48:48;;;;;;;12.07;10.20;;;21.80;99.90;;;;;;5070204;28;20444;-50
2022/07/26 02:51:14;;;;;;;10.60;9.53;;;21.50;99.90;;;;;;5070613;28;20440;-50
2022/07/26 02:53:41;;;;;;;11.00;9.33;;;21.40;99.90;;;;;;5070484;28;20925;-49
2022/07/26 02:56:08;;;;;;;10.57;9.40;;;21.30;99.90;;;;;;5070544;28;20833;-49
2022/07/26 02:58:34;;;;;;;10.33;9.33;;;21.40;99.90;;;;;;5070337;28;20501;-50
2022/07/26 03:01:01;;;;;;;10.53;9.50;;;21.30;99.90;;;;;;5070409;28;20428;-49
2022/07/26 03:03:29;;;;;;;9.93;8.93;;;21.30;99.90;;;;;;5070559;28;20436;-49
2022/07/26 03:05:56;;;;;;;12.87;8.90;;;21.20;99.90;;;;;;5070200;28;20479;-49
2022/07/26 03:08:22;;;;;;;8.87;7.90;;;21.30;99.90;;;;;;5070394;28;20427;-51
2022/07/26 03:10:49;;;;;;;9.67;8.37;;;21.20;99.90;;;;;;5070330;28;20427;-49
2022/07/26 03:13:16;;;;;;;10.90;9.50;;;21.20;99.90;;;;;;5072739;28;20436;-49
2022/07/26 03:15:42;;;;;;;10.50;9.50;;;21.30;99.90;;;;;;5074036;28;20452;-50
2022/07/26 03:18:09;;;;;;;10.20;9.20;;;21.40;99.90;;;;;;5074235;28;21022;-50
2022/07/26 03:20:37;;;;;;;9.57;8.67;;;21.10;99.90;;;;;;5073916;28;20447;-49
2022/07/26 03:23:03;;;;;;;9.93;9.10;;;21.20;99.90;;;;;;5072710;28;20766;-50
2022/07/26 03:28:05;;;;;;;10.13;8.80;;;21.20;99.90;;;;;;5072870;28;20451;-47
2022/07/26 03:30:31;;;;;;;10.80;8.70;;;20.90;99.90;;;;;;5074333;28;20448;-47
2022/07/26 03:32:58;;;;;;;9.03;8.23;;;21.10;99.90;;;;;;5074742;28;20439;-46
2022/07/26 03:35:25;;;;;;;11.40;8.87;;;21.10;99.90;;;;;;5074792;28;20924;-47
2022/07/26 03:37:53;;;;;;;8.73;7.83;;;20.70;99.90;;;;;;5074752;28;20558;-47
2022/07/26 03:40:20;;;;;;;8.90;8.10;;;21.10;99.90;;;;;;5074260;28;20430;-46
2022/07/26 03:42:48;;;;;;;8.33;7.50;;;21.10;99.90;;;;;;5074545;28;20525;-47
2022/07/26 03:45:15;;;;;;;8.33;6.63;;;21.10;99.90;;;;;;5074829;28;20480;-46
2022/07/26 03:47:42;;;;;;;9.00;7.10;;;21.10;99.90;;;;;;5074401;28;20562;-48
2022/07/26 03:50:12;;;;;;;8.47;7.47;;;21.10;99.90;;;;;;5074284;28;20475;-46
2022/07/26 03:52:39;;;;;;;9.93;6.00;;;21.00;99.90;;;;;;5074533;28;20431;-46
2022/07/26 03:57:48;;;;;;;8.50;6.57;;;21.30;99.90;;;;;;5074016;28;20998;-47
2022/07/26 04:00:15;;;;;;;8.20;5.73;;;21.10;99.90;;;;;;5073965;28;20453;-45
2022/07/26 04:02:41;;;;;;;10.00;6.37;;;21.10;99.90;;;;;;5074504;28;20431;-48
2022/07/26 04:05:09;;;;;;;8.50;5.87;;;21.20;99.90;;;;;;5073981;28;20479;-46
2022/07/26 04:07:41;;;;;;;11.37;6.20;;;21.30;99.90;;;;;;5074286;28;20508;-47
2022/07/26 04:10:10;;;;;;;9.13;5.50;;;21.20;99.90;;;;;;5073773;28;21033;-48
2022/07/26 04:12:36;;;;;;;8.23;5.23;;;21.30;99.90;;;;;;5074112;28;20474;-48
2022/07/26 04:15:04;;;;;;;6.13;4.93;;;21.20;99.90;;;;;;5073941;28;20495;-47
2022/07/26 04:17:36;;;;;;;8.30;4.93;;;21.20;99.90;;;;;;5074733;28;20509;-48
2022/07/26 04:20:04;;;;;;;7.03;5.60;;;21.20;99.90;;;;;;5073546;28;20816;-47
2022/07/26 04:22:30;;;;;;;9.43;5.43;;;21.40;99.90;;;;;;5073977;28;20485;-47
2022/07/26 04:24:57;;;;;;;7.90;4.70;;;21.30;99.90;;;;;;5073385;28;20475;-48
2022/07/26 04:27:25;;;;;;;9.17;5.33;;;21.10;99.90;;;;;;5073835;28;20472;-48
2022/07/26 04:29:51;;;;;;;6.77;4.40;;;21.60;99.90;;;;;;5073562;28;20793;-48
2022/07/26 04:32:18;;;;;;;7.43;5.40;;;21.30;99.90;;;;;;5073246;28;20428;-47
2022/07/26 04:34:45;;;;;;;11.43;5.00;;;21.20;99.90;;;;;;5073653;28;20432;-47
2022/07/26 04:37:11;;;;;;;7.77;4.77;;;21.30;99.90;;;;;;5074758;28;20458;-46
2022/07/26 04:39:38;;;;;;;7.83;4.77;;;21.30;99.90;;;;;;5073662;28;20435;-46
2022/07/26 04:42:04;;;;;;;11.40;5.63;;;21.30;99.90;;;;;;5073846;28;20443;-47
2022/07/26 04:44:32;;;;;;;8.30;5.00;;;21.30;99.90;;;;;;5074037;28;20474;-46
2022/07/26 04:46:59;;;;;;;10.27;4.63;;;21.10;99.90;;;;;;5073437;28;20459;-47
2022/07/26 04:49:26;;;;;;;8.57;5.13;;;21.40;99.90;;;;;;5073397;28;20430;-47
2022/07/26 04:51:52;;;;;;;8.50;5.10;;;21.40;99.90;;;;;;5073517;28;20927;-47
2022/07/26 04:54:21;;;;;;;8.60;4.80;;;21.10;99.90;;;;;;5073425;28;20513;-47
2022/07/26 04:56:48;;;;;;;9.67;5.03;;;21.60;99.90;;;;;;5073165;28;20460;-46
2022/07/26 04:59:16;;;;;;;19.80;5.90;;;21.60;99.90;;;;;;5073038;28;20435;-47
2022/07/26 05:01:44;;;;;;;5.57;4.30;;;21.70;99.90;;;;;;5072970;28;20792;-46
2022/07/26 05:04:11;;;;;;;9.07;4.33;;;21.80;99.90;;;;;;5072826;28;20919;-47
2022/07/26 05:06:37;;;;;;;6.63;4.10;;;21.70;99.90;;;;;;5072800;28;20459;-47
2022/07/26 05:09:04;;;;;;;12.20;5.30;;;21.90;99.90;;;;;;5072804;28;20431;-46
2022/07/26 05:11:31;;;;;;;9.07;4.63;;;22.00;99.90;;;;;;5072828;28;20460;-46
2022/07/26 05:13:57;;;;;;;6.90;4.87;;;22.00;99.90;;;;;;5072841;28;20429;-47
2022/07/26 05:16:24;;;;;;;7.97;5.00;;;22.10;99.90;;;;;;5072566;28;20459;-47
2022/07/26 05:18:52;;;;;;;8.60;5.00;;;22.10;99.90;;;;;;5072423;28;20437;-46
2022/07/26 05:21:19;;;;;;;9.00;5.30;;;22.20;99.90;;;;;;5072559;28;20485;-47
2022/07/26 05:23:45;;;;;;;7.83;4.70;;;22.20;99.90;;;;;;5072520;28;20437;-47
2022/07/26 05:26:12;;;;;;;10.03;4.97;;;21.90;99.90;;;;;;5072389;28;20496;-47
2022/07/26 05:28:39;;;;;;;7.37;4.07;;;22.20;99.90;;;;;;5072812;28;20432;-45
2022/07/26 05:31:06;;;;;;;9.73;4.47;;;22.20;99.90;;;;;;5073270;28;20455;-46
2022/07/26 05:33:32;;;;;;;18.47;4.90;;;22.30;99.90;;;;;;5072605;28;20439;-47
2022/07/26 05:36:00;;;;;;;11.80;5.63;;;22.30;99.90;;;;;;5071234;28;20461;-47
2022/07/26 05:38:27;;;;;;;11.03;3.97;;;22.40;99.90;;;;;;5071919;28;20501;-46
2022/07/26 05:40:53;;;;;;;12.93;4.73;;;22.40;99.90;;;;;;5071241;28;20449;-47
2022/07/26 05:43:20;;;;;;;5.77;3.87;;;22.50;99.90;;;;;;5070808;28;20819;-46
2022/07/26 05:45:46;;;;;;;7.80;4.43;;;22.50;99.90;;;;;;5072241;28;20492;-46
2022/07/26 05:48:13;;;;;;;9.47;4.50;;;22.50;99.90;;;;;;5072561;28;20441;-46
2022/07/26 05:50:40;;;;;;;11.17;5.17;;;22.60;99.90;;;;;;5071675;28;20442;-47
2022/07/26 05:53:08;;;;;;;7.00;4.00;;;22.70;99.90;;;;;;5072181;28;20443;-47
2022/07/26 05:55:34;;;;;;;6.87;4.50;;;22.70;99.90;;;;;;5071765;28;20532;-47
2022/07/26 05:58:01;;;;;;;6.80;4.03;;;22.90;99.90;;;;;;5071635;28;20934;-47
2022/07/26 06:00:28;;;;;;;9.67;4.50;;;23.10;99.80;;;;;;5071335;28;20425;-47
2022/07/26 06:02:55;;;;;;;14.97;4.67;;;23.00;99.30;;;;;;5071809;28;20441;-47
2022/07/26 06:05:21;;;;;;;5.77;3.87;;;23.10;99.10;;;;;;5071907;28;20477;-47
2022/07/26 06:07:48;;;;;;;6.77;3.40;;;23.10;98.90;;;;;;5072476;28;20751;-45
2022/07/26 06:10:16;;;;;;;8.17;3.87;;;23.30;98.50;;;;;;5071553;28;20441;-47
2022/07/26 06:12:42;;;;;;;8.17;4.20;;;23.30;98.20;;;;;;5071858;28;20430;-47
2022/07/26 06:15:09;;;;;;;6.90;3.60;;;23.40;97.90;;;;;;5071823;28;20434;-47
2022/07/26 06:17:40;;;;;;;7.93;3.83;;;23.30;97.30;;;;;;5071522;28;20449;-47
2022/07/26 06:20:08;;;;;;;8.43;3.80;;;23.20;96.80;;;;;;5071613;28;20813;-46
2022/07/26 06:22:34;;;;;;;9.63;3.67;;;23.20;97.10;;;;;;5071935;28;20426;-47
2022/07/26 06:25:01;;;;;;;5.00;3.20;;;23.30;97.10;;;;;;5071480;28;20479;-45
2022/07/26 06:27:31;;;;;;;9.30;3.40;;;23.30;96.80;;;;;;5071753;28;20499;-47
2022/07/26 06:29:58;;;;;;;9.70;3.73;;;23.40;96.60;;;;;;5071427;28;20513;-47
2022/07/26 06:32:25;;;;;;;5.90;3.70;;;23.60;96.70;;;;;;5071656;28;20434;-46
2022/07/26 06:34:51;;;;;;;8.90;3.87;;;23.50;96.70;;;;;;5071835;28;20450;-46
2022/07/26 06:37:18;;;;;;;8.40;3.53;;;23.40;96.20;;;;;;5071289;28;20529;-48
2022/07/26 06:39:45;;;;;;;9.77;3.53;;;23.50;96.20;;;;;;5071248;28;20431;-47
2022/07/26 06:42:11;;;;;;;7.23;3.70;;;23.60;96.40;;;;;;5071667;28;20773;-46
2022/07/26 06:44:40;;;;;;;8.73;3.30;;;23.60;96.20;;;;;;5070080;28;20455;-46
2022/07/26 06:47:07;;;;;;;13.60;4.40;;;23.90;96.20;;;;;;5071705;28;20494;-46
2022/07/26 06:49:34;;;;;;;9.83;3.13;;;23.70;96.10;;;;;;5075316;28;20462;-47
2022/07/26 06:52:00;;;;;;;17.90;8.23;;;23.80;95.70;;;;;;5075476;28;20443;-47
2022/07/26 06:54:27;;;;;;;7.90;3.40;;;23.80;95.60;;;;;;5075234;28;20431;-48
2022/07/26 06:56:54;;;;;;;7.50;3.50;;;23.70;95.40;;;;;;5075106;28;20456;-47
2022/07/26 06:59:20;;;;;;;10.60;3.30;;;24.10;95.40;;;;;;5074492;28;20926;-47
2022/07/26 07:01:48;;;;;;;10.03;3.50;;;23.60;95.40;;;;;;5075501;28;20793;-47
2022/07/26 07:04:15;;;;;;;9.03;4.10;;;23.70;95.00;;;;;;5075238;28;20440;-47
2022/07/26 07:06:41;;;;;;;9.13;2.77;;;23.70;94.80;;;;;;5075004;28;20986;-47
2022/07/26 07:09:08;;;;;;;10.03;2.90;;;23.70;94.70;;;;;;5074397;28;20802;-48
2022/07/26 07:11:35;;;;;;;8.60;3.87;;;23.80;94.70;;;;;;5075110;28;20467;-48
2022/07/26 07:14:02;;;;;;;8.70;3.53;;;23.90;94.70;;;;;;5075167;28;20432;-47
2022/07/26 07:16:28;;;;;;;6.90;3.30;;;23.90;94.20;;;;;;5074709;28;20459;-47
2022/07/26 07:18:56;;;;;;;7.67;4.30;;;24.00;94.00;;;;;;5074513;28;20513;-47
2022/07/26 07:21:23;;;;;;;5.53;2.50;;;24.00;93.70;;;;;;5074825;28;20434;-47
2022/07/26 07:23:50;;;;;;;6.27;3.10;;;24.10;93.10;;;;;;5074526;28;20531;-46
2022/07/26 07:26:18;;;;;;;5.90;3.67;;;24.10;93.60;;;;;;5074285;28;20866;-45
2022/07/26 07:28:45;;;;;;;6.40;2.87;;;24.10;93.50;;;;;;5074257;28;20514;-47
2022/07/26 07:31:12;;;;;;;8.50;2.60;;;24.10;93.30;;;;;;5074442;28;20938;-47
2022/07/26 07:33:38;;;;;;;11.43;2.70;;;24.10;93.10;;;;;;5074440;28;20803;-46
2022/07/26 07:36:07;;;;;;;7.37;2.50;;;24.30;93.10;;;;;;5074183;28;20467;-47
2022/07/26 07:38:34;;;;;;;6.00;2.80;;;24.20;93.00;;;;;;5074842;28;20787;-47
2022/07/26 07:41:00;;;;;;;7.57;3.03;;;24.30;92.80;;;;;;5074867;28;20492;-47
2022/07/26 07:43:27;;;;;;;5.03;2.43;;;24.20;92.60;;;;;;5074183;28;20439;-47
2022/07/26 07:45:54;;;;;;;9.77;3.63;;;24.30;92.50;;;;;;5074308;28;20487;-47
2022/07/26 07:48:20;;;;;;;6.23;2.47;;;24.40;92.30;;;;;;5074192;28;20990;-47
2022/07/26 07:50:47;;;;;;;7.80;2.50;;;24.50;92.20;;;;;;5073760;28;20522;-47
2022/07/26 07:53:15;;;;;;;10.67;3.03;;;24.50;92.10;;;;;;5074098;28;20436;-47
2022/07/26 07:55:41;;;;;;;11.60;2.77;;;24.50;92.40;;;;;;5073709;28;20503;-48
2022/07/26 07:58:08;;;;;;;6.70;2.53;;;24.60;92.00;;;;;;5074094;28;20882;-48
2022/07/26 08:00:35;;;;;;;6.67;3.10;;;24.60;92.00;;;;;;5072391;28;20440;-48
2022/07/26 08:03:01;;;;;;;5.10;2.77;;;24.70;91.80;;;;;;5074015;28;20441;-47
2022/07/26 08:05:28;;;;;;;12.80;3.20;;;24.90;91.50;;;;;;5073752;28;20440;-46
2022/07/26 08:07:54;;;;;;;3.90;2.07;;;25.00;91.20;;;;;;5073939;28;20446;-47
2022/07/26 08:10:23;;;;;;;9.17;3.03;;;25.20;90.80;;;;;;5073501;28;20486;-47
2022/07/26 08:12:50;;;;;;;13.43;3.20;;;25.30;90.50;;;;;;5073960;28;20439;-47
2022/07/26 08:15:17;;;;;;;4.97;2.43;;;25.50;90.40;;;;;;5073691;28;20469;-47
2022/07/26 08:17:43;;;;;;;8.13;2.80;;;25.40;90.00;;;;;;5073842;28;20953;-47
2022/07/26 08:20:11;;;;;;;5.50;2.70;;;25.50;89.50;;;;;;5073413;28;20448;-47
2022/07/26 08:22:38;;;;;;;7.83;2.27;;;25.40;89.10;;;;;;5073474;28;20430;-48
2022/07/26 08:25:06;;;;;;;3.90;1.97;;;25.30;89.00;;;;;;5073654;28;20453;-48
2022/07/26 08:27:34;;;;;;;6.47;2.43;;;25.20;88.70;;;;;;5088715;28;20484;-47
2022/07/26 08:30:01;;;;;;;11.70;2.87;;;25.10;88.30;;;;;;5073004;28;20871;-47
2022/07/26 08:32:27;;;;;;;7.83;2.20;;;24.90;88.30;;;;;;5073581;28;20440;-47
2022/07/26 08:34:54;;;;;;;5.50;2.70;;;24.90;88.60;;;;;;5073354;28;20548;-47
2022/07/26 08:37:21;;;;;;;7.93;3.20;;;24.80;88.70;;;;;;5073113;28;20550;-47
2022/07/26 08:39:48;;;;;;;8.33;2.43;;;24.70;88.90;;;;;;5072919;28;20428;-47
2022/07/26 08:42:15;;;;;;;4.73;2.50;;;24.70;89.00;;;;;;5072758;28;20460;-47
2022/07/26 08:44:44;;;;;;;5.27;1.93;;;24.70;89.80;;;;;;5072906;28;20943;-48
2022/07/26 08:47:12;;;;;;;6.17;2.10;;;24.70;89.10;;;;;;5072671;28;20489;-48
2022/07/26 08:49:39;;;;;;;4.20;1.90;;;24.70;89.00;;;;;;5072655;28;20464;-47
2022/07/26 08:52:07;;;;;;;5.80;2.10;;;24.60;88.50;;;;;;5073150;28;20450;-47
2022/07/26 08:54:33;;;;;;;6.50;2.90;;;24.70;88.80;;;;;;5072960;28;20782;-47
2022/07/26 08:57:00;;;;;;;6.47;2.17;;;24.70;88.60;;;;;;5072946;28;20453;-47
2022/07/26 08:59:27;;;;;;;5.40;2.27;;;24.70;88.50;;;;;;5072466;28;20433;-48
2022/07/26 09:01:57;;;;;;;6.90;4.40;;;24.70;88.50;;;;;;5072843;28;20434;-47
2022/07/26 09:04:27;;;;;;;5.93;2.83;;;24.70;88.30;;;;;;5072932;28;20425;-47
2022/07/26 09:06:59;;;;;;;6.10;3.20;;;24.70;88.00;;;;;;5073612;28;20487;-55
2022/07/26 09:09:26;;;;;;;5.30;2.50;;;24.70;88.20;;;;;;5069627;28;20449;-47
2022/07/26 09:11:54;;;;;;;5.23;1.83;;;24.80;87.90;;;;;;5070487;28;20484;-46
2022/07/26 09:14:21;;;;;;;6.30;2.87;;;24.90;87.20;;;;;;5072334;28;20602;-47
2022/07/26 09:16:59;;;;;;;3.80;2.30;;;24.90;86.40;;;;;;5072200;28;20476;-47
2022/07/26 09:19:27;;;;;;;3.10;1.63;;;25.20;84.80;;;;;;5072171;28;20453;-46
2022/07/26 09:21:56;;;;;;;7.93;2.10;;;25.30;84.20;;;;;;5071952;28;20425;-47
2022/07/26 09:24:31;;;;;;;3.47;1.80;;;25.40;83.60;;;;;;5072461;28;20445;-47
2022/07/26 09:27:01;;;;;;;4.70;2.20;;;25.50;82.80;;;;;;5087311;22;20588;-49
2022/07/26 09:29:28;;;;;;;6.80;2.13;;;25.40;82.30;;;;;;5051718;28;20903;-48
2022/07/26 09:32:11;;;;;;;3.47;1.83;;;25.60;82.10;;;;;;5052405;28;20807;-48
2022/07/26 09:34:39;;;;;;;3.53;1.90;;;25.70;81.20;;;;;;5052162;28;20438;-50
2022/07/26 09:37:05;;;;;;;4.00;1.53;;;25.80;81.60;;;;;;5051512;28;20477;-50
2022/07/26 09:39:32;;;;;;;5.00;2.57;;;25.80;81.40;;;;;;5051488;28;20501;-48
2022/07/26 09:42:06;;;;;;;5.30;1.60;;;25.70;81.70;;;;;;5051485;28;20903;-50
2022/07/26 09:44:41;;;;;;;3.90;2.00;;;25.80;81.50;;;;;;5050727;28;20919;-48
2022/07/26 09:47:07;;;;;;;9.10;2.17;;;25.70;81.50;;;;;;5051670;28;20487;-50
2022/07/26 09:49:35;;;;;;;6.40;1.90;;;25.40;81.70;;;;;;5050092;28;20443;-49
2022/07/26 09:52:04;;;;;;;6.90;2.20;;;25.60;82.10;;;;;;5051796;28;20431;-49
2022/07/26 09:54:32;;;;;;;7.73;3.00;;;25.60;82.40;;;;;;5051808;28;20431;-50
2022/07/26 09:56:59;;;;;;;5.57;2.20;;;25.70;82.60;;;;;;5051345;28;20454;-50
2022/07/26 09:59:27;;;;;;;5.30;2.23;;;25.90;82.60;;;;;;5051180;28;20430;-49
2022/07/26 10:01:56;;;;;;;6.83;1.90;;;26.10;81.80;;;;;;5051485;28;20949;-49
2022/07/26 10:04:23;;;;;;;3.53;1.80;;;26.10;79.70;;;;;;5051492;28;20760;-49
2022/07/26 10:06:52;;;;;;;5.60;1.60;;;26.20;79.00;;;;;;5050949;28;20489;-49
2022/07/26 10:09:19;;;;;;;4.63;1.60;;;26.30;78.10;;;;;;5050761;28;20441;-49
2022/07/26 10:11:52;;;;;;;3.80;1.90;;;26.20;77.90;;;;;;5050121;28;20564;-49
2022/07/26 10:14:38;;;;;;;7.80;3.57;;;26.50;77.30;;;;;;5051028;28;20922;-49
2022/07/26 10:17:44;;;;;;;6.67;2.10;;;26.60;76.80;;;;;;5049651;28;20466;-49
2022/07/26 10:20:40;;;;;;;4.87;1.80;;;26.60;76.80;;;;;;5050543;28;20470;-49
2022/07/26 10:23:35;;;;;;;3.13;1.97;;;26.50;77.00;;;;;;5050473;28;20445;-49
2022/07/26 10:26:03;;;;;;;5.70;2.50;;;26.50;76.90;;;;;;5050069;28;20499;-49
2022/07/26 10:28:32;;;;;;;4.70;2.07;;;26.60;77.30;;;;;;5050387;28;20465;-49
2022/07/26 10:31:25;;;;;;;4.60;2.53;;;26.70;77.00;;;;;;5050884;28;20483;-49
2022/07/26 10:33:55;;;;;;;5.80;2.20;;;26.80;76.00;;;;;;5049668;28;20460;-49
2022/07/26 10:36:26;;;;;;;8.77;2.67;;;26.80;76.60;;;;;;5050130;28;20510;-50
2022/07/26 10:39:14;;;;;;;6.10;1.93;;;26.80;76.50;;;;;;5050051;28;20524;-49
2022/07/26 10:41:44;;;;;;;5.37;2.33;;;26.80;75.10;;;;;;5046438;28;20536;-49
2022/07/26 10:44:25;;;;;;;4.67;2.40;;;26.70;76.00;;;;;;5060693;28;20453;-49
2022/07/26 10:47:01;;;;;;;6.20;2.40;;;26.70;75.60;;;;;;5070734;28;20477;-49
2022/07/26 10:49:30;;;;;;;8.40;2.80;;;26.70;75.60;;;;;;5069631;28;20795;-49
2022/07/26 10:52:12;;;;;;;8.73;2.40;;;26.70;75.80;;;;;;5069300;28;20456;-49
2022/07/26 10:55:07;;;;;;;6.13;2.60;;;26.50;75.80;;;;;;5070815;28;20503;-50
2022/07/26 10:57:36;;;;;;;3.80;1.93;;;27.60;76.70;;;;;;5070880;28;20458;-49
2022/07/26 11:00:08;;;;;;;6.97;2.77;;;26.30;76.70;;;;;;5069138;28;20461;-49
2022/07/26 11:02:35;;;;;;;5.13;1.93;;;26.30;76.70;;;;;;5069829;28;20532;-49
2022/07/26 11:05:04;;;;;;;13.27;2.30;;;26.30;76.60;;;;;;5070303;28;20473;-49
2022/07/26 11:07:32;;;;;;;4.00;2.17;;;26.20;75.90;;;;;;5070610;28;20482;-49
2022/07/26 11:10:00;;;;;;;4.83;1.80;;;26.40;75.50;;;;;;5069222;28;20426;-49
2022/07/26 11:12:26;;;;;;;6.13;2.20;;;26.50;76.10;;;;;;5050786;28;20430;-48
2022/07/26 11:14:53;;;;;;;9.80;2.43;;;26.60;75.60;;;;;;5050190;28;20436;-49
2022/07/26 11:17:24;;;;;;;6.17;2.03;;;26.80;75.60;;;;;;5050616;28;20466;-49
2022/07/26 11:19:57;;;;;;;7.37;2.63;;;26.90;74.70;;;;;;5050197;28;20427;-49
2022/07/26 11:22:33;;;;;;;5.03;1.90;;;27.00;74.60;;;;;;5050847;28;20520;-49
2022/07/26 11:25:00;;;;;;;10.47;4.10;;;27.20;73.60;;;;;;5050815;28;20427;-49
2022/07/26 11:27:26;;;;;;;6.47;2.30;;;27.40;73.40;;;;;;5050168;28;20514;-49
2022/07/26 11:29:53;;;;;;;6.20;2.40;;;27.40;73.30;;;;;;5050099;28;20528;-49
2022/07/26 11:32:22;;;;;;;6.53;1.80;;;27.60;73.50;;;;;;5050613;28;20434;-49
2022/07/26 11:35:10;;;;;;;6.50;2.20;;;27.60;73.40;;;;;;5053335;28;20453;-49
2022/07/26 11:37:38;;;;;;;8.27;2.23;;;27.70;73.10;;;;;;5053907;28;20507;-49
2022/07/26 11:40:06;;;;;;;3.90;1.90;;;27.50;72.60;;;;;;5053748;28;20450;-50
2022/07/26 11:42:32;;;;;;;4.40;1.93;;;27.50;72.70;;;;;;5053730;28;20823;-49
2022/07/26 11:45:18;;;;;;;3.40;2.00;;;27.40;72.70;;;;;;5054227;28;20750;-49
2022/07/26 11:47:44;;;;;;;15.17;2.97;;;27.40;72.10;;;;;;5053713;28;20482;-49
2022/07/26 11:50:11;;;;;;;8.80;1.90;;;27.40;72.50;;;;;;5052178;28;20442;-49
2022/07/26 11:52:39;;;;;;;5.33;1.90;;;27.60;73.10;;;;;;5053582;28;20434;-49
2022/07/26 11:55:13;;;;;;;4.13;1.60;;;27.20;72.20;;;;;;5053864;28;20959;-49
2022/07/26 11:57:39;;;;;;;3.70;1.70;;;27.20;71.60;;;;;;5053904;28;20979;-49
2022/07/26 12:00:07;;;;;;;4.13;1.90;;;27.20;71.40;;;;;;5051731;28;20954;-49
2022/07/26 12:02:41;;;;;;;4.40;2.37;;;27.20;71.20;;;;;;5053584;28;20930;-49
2022/07/26 12:05:15;;;;;;;5.83;2.70;;;27.30;71.30;;;;;;5053808;28;20435;-49
2022/07/26 12:07:55;;;;;;;5.07;2.20;;;27.50;71.20;;;;;;5053387;28;20485;-50
2022/07/26 12:10:22;;;;;;;3.40;1.77;;;27.50;71.00;;;;;;5052895;28;20439;-49
2022/07/26 12:12:49;;;;;;;6.30;2.00;;;27.40;71.60;;;;;;5053824;28;20766;-49
2022/07/26 12:15:16;;;;;;;5.73;2.07;;;27.30;71.60;;;;;;5053193;28;20434;-49
2022/07/26 12:17:58;;;;;;;6.60;2.03;;;27.30;71.00;;;;;;5051492;28;20493;-49
2022/07/26 12:20:26;;;;;;;5.20;1.83;;;27.30;69.80;;;;;;5052913;28;20435;-48
2022/07/26 12:22:56;;;;;;;10.37;2.60;;;27.20;69.10;;;;;;5052861;28;20455;-49
2022/07/26 12:25:27;;;;;;;6.40;1.80;;;26.80;68.70;;;;;;5052664;28;20439;-49
2022/07/26 12:27:54;;;;;;;4.77;2.13;;;26.40;75.00;;;;;;5051326;28;20487;-49
2022/07/26 12:30:21;;;;;;;8.60;1.97;;;26.50;78.90;;;;;;5052502;28;20878;-50
2022/07/26 12:32:50;;;;;;;6.47;2.23;;;25.40;80.60;;;;;;5052587;28;20438;-49
2022/07/26 12:35:28;;;;;;;4.80;2.00;;;25.20;82.50;;;;;;5052394;28;20443;-49
2022/07/26 12:37:56;;;;;;;5.03;2.10;;;25.00;84.00;;;;;;5052463;28;20523;-49
2022/07/26 12:40:23;;;;;;;6.63;2.73;;;25.00;87.00;;;;;;5052312;28;20457;-49
2022/07/26 12:42:56;;;;;;;4.03;2.27;;;24.90;88.80;;;;;;5052524;28;20473;-49
2022/07/26 12:45:26;;;;;;;7.33;3.47;;;24.70;90.40;;;;;;5052093;28;20441;-49
2022/07/26 12:47:54;;;;;;;5.13;2.73;;;24.50;91.00;;;;;;5052886;28;20501;-49
2022/07/26 12:50:22;;;;;;;10.17;2.63;;;24.30;92.20;;;;;;5052606;28;20430;-49
2022/07/26 12:52:49;;;;;;;4.23;2.30;;;24.20;92.90;;;;;;5052346;28;20911;-49
2022/07/26 12:55:20;;;;;;;3.30;2.13;;;24.10;93.70;;;;;;5052639;28;20899;-48
2022/07/26 12:57:48;;;;;;;3.90;2.17;;;24.10;94.30;;;;;;5052260;28;20461;-49
2022/07/26 13:00:17;;;;;;;2.93;2.23;;;23.70;94.20;;;;;;5052097;28;20428;-49